Silverton, CO

5:54 PM MDT on October 24, 2014 (GMT -0600)
Telluride Regional | Change Station
CLOSE
Current Station
Airport
Location: Telluride,
Elevation: 9078 ft
Nearby Weather Stations

Elev 9078 ft 37.95 °N, 107.91 °W | Updated 19 minutes ago

Clear
Clear
62 °F
Feels Like 62 °F
N
12
Wind Variable Wind from West

Today
High -- | Low -- °F
--% Chance of Precip.
Yesterday
High -- | Low -- °F
Precip. -- in
7:27 AM 6:21 PM
New Moon, 1% visible
Pressure 30.48 in
Visibility 10.0 miles
Clouds Clear
Dew Point 23 °F
Humidity 23%
Rainfall 0.00 in
Snow Depth 0 in
UV 0 out of 12
Pollen 2.40 out of 12
Air Quality Not available.
Flu Activity Not available.
METAR KTEX 242335Z AUTO 26010KT 10SM CLR 17/M05 A3048 RMK AO2 T01661049

More Conditions Fewer Conditions

Pressure 30.48 in
Visibility 10.0 miles
Clouds Clear
Dew Point 23 °F
Humidity 23%
Rainfall 0.00 in
Snow Depth 0 in
UV 0 out of 12
Pollen 2.40 out of 12
Air Quality Not available.
Flu Activity Not available.
METAR KTEX 242335Z AUTO 26010KT 10SM CLR 17/M05 A3048 RMK AO2 T01661049

More Conditions Fewer Conditions

10-Day Weather Forecast

Almanac

Astronomy

Oct. 24, 2014 Rise Set
Actual Time 7:27 AM MDT 6:21 PM MDT
Civil Twilight 7:01 AM MDT 6:47 PM MDT
Nautical Twilight 6:30 AM MDT 7:18 PM MDT
Astronomical Twilight 5:59 AM MDT 7:49 PM MDT
Moon 8:09 AM MDT 7:04 PM MDT
Length of Visible Light 11h 46m
Length of Day
10h 53m
Tomorrow will be 2m 14s shorter.
New Moon, 1% of the Moon is Illuminated
Today
New Moon
Oct 30
First Quarter
Nov 6
Full
Nov 14
Last Quarter
Nov 22
New

Today's Extremes

State Highs State Lows

Community

WunderPhotos

Upload Photos

1,764,713 photos uploaded!

Nearby

Snow Depth

Station Depth Elevation
Mineral Creek 0 in 10040 ft
Spud Mountain 0 in 10660 ft
El Diente Peak 0 in 10200 ft
Scotch Creek 1 in 9100 ft
Lone Cone 10 in 9600 ft

Earthquake Activity

City Distance Mag. Time & Date
No recent earthquake activity has been reported nearby.
Minimum magnitude displayed is 2.5.

Coastal Water Temperatures

Place Temperature
No Stations Reporting

Nearby Weather Stations